sensor_id;sensor_type;location;lat;lon;timestamp;P1;P2;P0
74880;PMS5003;63427;49.654;6.596;2022-12-07T00:01:10;19;17;
74880;PMS5003;63427;49.654;6.596;2022-12-07T00:03:35;20;20;
74880;PMS5003;63427;49.654;6.596;2022-12-07T00:06:00;19;19;
74880;PMS5003;63427;49.654;6.596;2022-12-07T00:08:26;21;20;
74880;PMS5003;63427;49.654;6.596;2022-12-07T00:10:51;22;21;
74880;PMS5003;63427;49.654;6.596;2022-12-07T00:13:17;26;25;
74880;PMS5003;63427;49.654;6.596;2022-12-07T00:15:42;18;18;
74880;PMS5003;63427;49.654;6.596;2022-12-07T00:18:07;19;19;
74880;PMS5003;63427;49.654;6.596;2022-12-07T00:20:33;15;14;
74880;PMS5003;63427;49.654;6.596;2022-12-07T00:22:58;20;18;
74880;PMS5003;63427;49.654;6.596;2022-12-07T00:25:24;21;21;
74880;PMS5003;63427;49.654;6.596;2022-12-07T00:27:51;18;17;
74880;PMS5003;63427;49.654;6.596;2022-12-07T00:30:16;19;19;
74880;PMS5003;63427;49.654;6.596;2022-12-07T00:32:41;21;21;
74880;PMS5003;63427;49.654;6.596;2022-12-07T00:35:07;18;17;
74880;PMS5003;63427;49.654;6.596;2022-12-07T00:37:33;20;19;
74880;PMS5003;63427;49.654;6.596;2022-12-07T00:39:58;21;20;
74880;PMS5003;63427;49.654;6.596;2022-12-07T00:42:24;19;19;
74880;PMS5003;63427;49.654;6.596;2022-12-07T00:44:50;17;17;
74880;PMS5003;63427;49.654;6.596;2022-12-07T00:47:16;22;21;
74880;PMS5003;63427;49.654;6.596;2022-12-07T00:49:42;19;18;
74880;PMS5003;63427;49.654;6.596;2022-12-07T00:52:07;19;19;
74880;PMS5003;63427;49.654;6.596;2022-12-07T00:54:33;18;18;
74880;PMS5003;63427;49.654;6.596;2022-12-07T00:56:58;19;19;
74880;PMS5003;63427;49.654;6.596;2022-12-07T00:59:23;20;19;
74880;PMS5003;63427;49.654;6.596;2022-12-07T01:01:48;18;18;
74880;PMS5003;63427;49.654;6.596;2022-12-07T01:04:14;15;15;
74880;PMS5003;63427;49.654;6.596;2022-12-07T01:06:40;20;20;
74880;PMS5003;63427;49.654;6.596;2022-12-07T01:09:06;22;21;
74880;PMS5003;63427;49.654;6.596;2022-12-07T01:11:31;17;16;
74880;PMS5003;63427;49.654;6.596;2022-12-07T01:13:57;21;21;
74880;PMS5003;63427;49.654;6.596;2022-12-07T01:16:23;19;18;
74880;PMS5003;63427;49.654;6.596;2022-12-07T01:18:48;17;17;
74880;PMS5003;63427;49.654;6.596;2022-12-07T01:21:14;17;17;
74880;PMS5003;63427;49.654;6.596;2022-12-07T01:23:38;16;16;
74880;PMS5003;63427;49.654;6.596;2022-12-07T01:26:05;24;22;
74880;PMS5003;63427;49.654;6.596;2022-12-07T01:28:30;18;17;
74880;PMS5003;63427;49.654;6.596;2022-12-07T01:30:57;20;19;
74880;PMS5003;63427;49.654;6.596;2022-12-07T01:33:21;22;22;
74880;PMS5003;63427;49.654;6.596;2022-12-07T01:35:47;25;25;
74880;PMS5003;63427;49.654;6.596;2022-12-07T01:38:13;23;22;
74880;PMS5003;63427;49.654;6.596;2022-12-07T01:40:38;21;21;
74880;PMS5003;63427;49.654;6.596;2022-12-07T01:43:04;24;24;
74880;PMS5003;63427;49.654;6.596;2022-12-07T01:45:36;20;19;
74880;PMS5003;63427;49.654;6.596;2022-12-07T01:47:55;22;20;
74880;PMS5003;63427;49.654;6.596;2022-12-07T01:50:20;24;22;
74880;PMS5003;63427;49.654;6.596;2022-12-07T01:52:46;24;23;
74880;PMS5003;63427;49.654;6.596;2022-12-07T01:55:12;24;24;
74880;PMS5003;63427;49.654;6.596;2022-12-07T01:57:38;27;25;
74880;PMS5003;63427;49.654;6.596;2022-12-07T02:00:03;32;30;
74880;PMS5003;63427;49.654;6.596;2022-12-07T02:02:28;21;20;
74880;PMS5003;63427;49.654;6.596;2022-12-07T02:04:53;26;24;
74880;PMS5003;63427;49.654;6.596;2022-12-07T02:07:19;24;24;
74880;PMS5003;63427;49.654;6.596;2022-12-07T02:09:44;26;24;
74880;PMS5003;63427;49.654;6.596;2022-12-07T02:12:09;19;18;
74880;PMS5003;63427;49.654;6.596;2022-12-07T02:14:35;23;22;
74880;PMS5003;63427;49.654;6.596;2022-12-07T02:17:03;16;16;
74880;PMS5003;63427;49.654;6.596;2022-12-07T02:19:33;18;17;
74880;PMS5003;63427;49.654;6.596;2022-12-07T02:21:52;19;19;
74880;PMS5003;63427;49.654;6.596;2022-12-07T02:24:25;21;21;
74880;PMS5003;63427;49.654;6.596;2022-12-07T02:26:49;18;17;
74880;PMS5003;63427;49.654;6.596;2022-12-07T02:29:10;21;20;
74880;PMS5003;63427;49.654;6.596;2022-12-07T02:31:33;19;18;
74880;PMS5003;63427;49.654;6.596;2022-12-07T02:34:04;20;19;
74880;PMS5003;63427;49.654;6.596;2022-12-07T02:36:25;24;24;
74880;PMS5003;63427;49.654;6.596;2022-12-07T02:38:51;20;20;
74880;PMS5003;63427;49.654;6.596;2022-12-07T02:41:16;18;17;
74880;PMS5003;63427;49.654;6.596;2022-12-07T02:43:42;19;19;
74880;PMS5003;63427;49.654;6.596;2022-12-07T02:46:07;24;23;
74880;PMS5003;63427;49.654;6.596;2022-12-07T02:48:33;21;20;
74880;PMS5003;63427;49.654;6.596;2022-12-07T02:50:58;17;17;
74880;PMS5003;63427;49.654;6.596;2022-12-07T02:53:28;20;19;
74880;PMS5003;63427;49.654;6.596;2022-12-07T02:55:48;23;23;
74880;PMS5003;63427;49.654;6.596;2022-12-07T02:58:18;21;20;
74880;PMS5003;63427;49.654;6.596;2022-12-07T03:00:41;19;19;
74880;PMS5003;63427;49.654;6.596;2022-12-07T03:03:06;20;19;
74880;PMS5003;63427;49.654;6.596;2022-12-07T03:05:35;22;22;
74880;PMS5003;63427;49.654;6.596;2022-12-07T03:07:59;23;21;
74880;PMS5003;63427;49.654;6.596;2022-12-07T03:10:22;21;20;
74880;PMS5003;63427;49.654;6.596;2022-12-07T03:12:48;29;27;
74880;PMS5003;63427;49.654;6.596;2022-12-07T03:15:13;22;22;
74880;PMS5003;63427;49.654;6.596;2022-12-07T03:17:38;27;27;
74880;PMS5003;63427;49.654;6.596;2022-12-07T03:20:04;29;26;
74880;PMS5003;63427;49.654;6.596;2022-12-07T03:22:29;25;24;
74880;PMS5003;63427;49.654;6.596;2022-12-07T03:24:55;24;23;
74880;PMS5003;63427;49.654;6.596;2022-12-07T03:27:21;29;27;
74880;PMS5003;63427;49.654;6.596;2022-12-07T03:29:47;27;26;
74880;PMS5003;63427;49.654;6.596;2022-12-07T03:32:12;25;25;
74880;PMS5003;63427;49.654;6.596;2022-12-07T03:34:36;30;30;
74880;PMS5003;63427;49.654;6.596;2022-12-07T03:37:02;24;24;
74880;PMS5003;63427;49.654;6.596;2022-12-07T03:39:27;31;28;
74880;PMS5003;63427;49.654;6.596;2022-12-07T03:41:52;21;21;
74880;PMS5003;63427;49.654;6.596;2022-12-07T03:44:17;24;24;
74880;PMS5003;63427;49.654;6.596;2022-12-07T03:46:44;23;23;
74880;PMS5003;63427;49.654;6.596;2022-12-07T03:49:11;22;22;
74880;PMS5003;63427;49.654;6.596;2022-12-07T03:51:36;24;24;
74880;PMS5003;63427;49.654;6.596;2022-12-07T03:54:00;31;27;
74880;PMS5003;63427;49.654;6.596;2022-12-07T03:56:25;23;23;
74880;PMS5003;63427;49.654;6.596;2022-12-07T03:58:51;22;22;
74880;PMS5003;63427;49.654;6.596;2022-12-07T04:01:17;26;26;
74880;PMS5003;63427;49.654;6.596;2022-12-07T04:03:41;27;27;
74880;PMS5003;63427;49.654;6.596;2022-12-07T04:06:07;25;24;
74880;PMS5003;63427;49.654;6.596;2022-12-07T04:08:33;30;27;
74880;PMS5003;63427;49.654;6.596;2022-12-07T04:10:58;24;22;
74880;PMS5003;63427;49.654;6.596;2022-12-07T04:13:24;25;23;
74880;PMS5003;63427;49.654;6.596;2022-12-07T04:15:49;21;21;
74880;PMS5003;63427;49.654;6.596;2022-12-07T04:18:15;31;28;
74880;PMS5003;63427;49.654;6.596;2022-12-07T04:20:40;24;23;
74880;PMS5003;63427;49.654;6.596;2022-12-07T04:23:06;19;18;
74880;PMS5003;63427;49.654;6.596;2022-12-07T04:25:32;22;21;
74880;PMS5003;63427;49.654;6.596;2022-12-07T04:27:57;21;21;
74880;PMS5003;63427;49.654;6.596;2022-12-07T04:30:22;29;27;
74880;PMS5003;63427;49.654;6.596;2022-12-07T04:32:48;28;28;
74880;PMS5003;63427;49.654;6.596;2022-12-07T04:35:14;26;25;
74880;PMS5003;63427;49.654;6.596;2022-12-07T04:37:39;23;23;
74880;PMS5003;63427;49.654;6.596;2022-12-07T04:40:06;21;21;
74880;PMS5003;63427;49.654;6.596;2022-12-07T04:42:31;19;18;
74880;PMS5003;63427;49.654;6.596;2022-12-07T04:44:57;19;19;
74880;PMS5003;63427;49.654;6.596;2022-12-07T04:47:22;23;23;
74880;PMS5003;63427;49.654;6.596;2022-12-07T04:49:48;24;23;
74880;PMS5003;63427;49.654;6.596;2022-12-07T04:52:13;30;27;
74880;PMS5003;63427;49.654;6.596;2022-12-07T04:54:38;23;22;
74880;PMS5003;63427;49.654;6.596;2022-12-07T04:57:04;32;30;
74880;PMS5003;63427;49.654;6.596;2022-12-07T04:59:30;22;21;
74880;PMS5003;63427;49.654;6.596;2022-12-07T05:01:55;22;21;
74880;PMS5003;63427;49.654;6.596;2022-12-07T05:04:21;31;31;
74880;PMS5003;63427;49.654;6.596;2022-12-07T05:06:46;27;27;
74880;PMS5003;63427;49.654;6.596;2022-12-07T05:09:12;31;29;
74880;PMS5003;63427;49.654;6.596;2022-12-07T05:11:37;24;23;
74880;PMS5003;63427;49.654;6.596;2022-12-07T05:14:03;25;24;
74880;PMS5003;63427;49.654;6.596;2022-12-07T05:16:29;27;26;
74880;PMS5003;63427;49.654;6.596;2022-12-07T05:18:54;27;25;
74880;PMS5003;63427;49.654;6.596;2022-12-07T05:21:20;22;22;
74880;PMS5003;63427;49.654;6.596;2022-12-07T05:23:46;22;22;
74880;PMS5003;63427;49.654;6.596;2022-12-07T05:26:11;25;23;
74880;PMS5003;63427;49.654;6.596;2022-12-07T05:28:37;26;23;
74880;PMS5003;63427;49.654;6.596;2022-12-07T05:31:02;29;28;
74880;PMS5003;63427;49.654;6.596;2022-12-07T05:33:28;32;29;
74880;PMS5003;63427;49.654;6.596;2022-12-07T05:35:54;28;27;
74880;PMS5003;63427;49.654;6.596;2022-12-07T05:38:20;29;27;
74880;PMS5003;63427;49.654;6.596;2022-12-07T05:40:45;34;33;
74880;PMS5003;63427;49.654;6.596;2022-12-07T05:43:10;28;28;
74880;PMS5003;63427;49.654;6.596;2022-12-07T05:45:36;29;27;
74880;PMS5003;63427;49.654;6.596;2022-12-07T05:48:02;33;30;
74880;PMS5003;63427;49.654;6.596;2022-12-07T05:50:27;28;28;
74880;PMS5003;63427;49.654;6.596;2022-12-07T05:52:53;26;25;
74880;PMS5003;63427;49.654;6.596;2022-12-07T05:55:19;28;26;
74880;PMS5003;63427;49.654;6.596;2022-12-07T05:57:44;28;25;
74880;PMS5003;63427;49.654;6.596;2022-12-07T06:00:10;30;30;
74880;PMS5003;63427;49.654;6.596;2022-12-07T06:02:34;28;26;
74880;PMS5003;63427;49.654;6.596;2022-12-07T06:05:00;25;25;
74880;PMS5003;63427;49.654;6.596;2022-12-07T06:07:25;30;28;
74880;PMS5003;63427;49.654;6.596;2022-12-07T06:09:51;25;25;
74880;PMS5003;63427;49.654;6.596;2022-12-07T06:12:16;26;26;
74880;PMS5003;63427;49.654;6.596;2022-12-07T06:14:41;29;28;
74880;PMS5003;63427;49.654;6.596;2022-12-07T06:17:07;33;33;
74880;PMS5003;63427;49.654;6.596;2022-12-07T06:19:32;31;29;
74880;PMS5003;63427;49.654;6.596;2022-12-07T06:21:57;28;27;
74880;PMS5003;63427;49.654;6.596;2022-12-07T06:24:23;26;26;
74880;PMS5003;63427;49.654;6.596;2022-12-07T06:26:48;25;24;
74880;PMS5003;63427;49.654;6.596;2022-12-07T06:29:14;35;35;
74880;PMS5003;63427;49.654;6.596;2022-12-07T06:31:39;32;30;
74880;PMS5003;63427;49.654;6.596;2022-12-07T06:34:05;31;29;
74880;PMS5003;63427;49.654;6.596;2022-12-07T06:36:30;28;26;
74880;PMS5003;63427;49.654;6.596;2022-12-07T06:38:55;32;32;
74880;PMS5003;63427;49.654;6.596;2022-12-07T06:41:20;25;24;
74880;PMS5003;63427;49.654;6.596;2022-12-07T06:43:47;27;27;
74880;PMS5003;63427;49.654;6.596;2022-12-07T06:46:11;32;29;
74880;PMS5003;63427;49.654;6.596;2022-12-07T06:48:37;31;30;
74880;PMS5003;63427;49.654;6.596;2022-12-07T06:51:02;30;29;
74880;PMS5003;63427;49.654;6.596;2022-12-07T06:53:28;29;28;
74880;PMS5003;63427;49.654;6.596;2022-12-07T06:55:53;30;29;
74880;PMS5003;63427;49.654;6.596;2022-12-07T06:58:18;26;25;
74880;PMS5003;63427;49.654;6.596;2022-12-07T07:00:44;31;30;
74880;PMS5003;63427;49.654;6.596;2022-12-07T07:03:09;27;27;
74880;PMS5003;63427;49.654;6.596;2022-12-07T07:05:35;30;27;
74880;PMS5003;63427;49.654;6.596;2022-12-07T07:08:00;21;21;
74880;PMS5003;63427;49.654;6.596;2022-12-07T07:10:25;38;34;
74880;PMS5003;63427;49.654;6.596;2022-12-07T07:12:51;28;28;
74880;PMS5003;63427;49.654;6.596;2022-12-07T07:15:16;30;29;
74880;PMS5003;63427;49.654;6.596;2022-12-07T07:17:41;27;26;
74880;PMS5003;63427;49.654;6.596;2022-12-07T07:20:07;28;28;
74880;PMS5003;63427;49.654;6.596;2022-12-07T07:22:32;27;26;
74880;PMS5003;63427;49.654;6.596;2022-12-07T07:24:57;28;27;
74880;PMS5003;63427;49.654;6.596;2022-12-07T07:27:23;25;24;
74880;PMS5003;63427;49.654;6.596;2022-12-07T07:29:48;25;22;
74880;PMS5003;63427;49.654;6.596;2022-12-07T07:32:13;27;26;
74880;PMS5003;63427;49.654;6.596;2022-12-07T07:34:39;29;28;
74880;PMS5003;63427;49.654;6.596;2022-12-07T07:37:05;24;23;
74880;PMS5003;63427;49.654;6.596;2022-12-07T07:39:30;27;26;
74880;PMS5003;63427;49.654;6.596;2022-12-07T07:41:55;25;25;
74880;PMS5003;63427;49.654;6.596;2022-12-07T07:44:21;27;26;
74880;PMS5003;63427;49.654;6.596;2022-12-07T07:46:47;31;26;
74880;PMS5003;63427;49.654;6.596;2022-12-07T07:49:12;27;24;
74880;PMS5003;63427;49.654;6.596;2022-12-07T07:51:37;28;28;
74880;PMS5003;63427;49.654;6.596;2022-12-07T07:54:03;21;21;
74880;PMS5003;63427;49.654;6.596;2022-12-07T07:56:29;27;26;
74880;PMS5003;63427;49.654;6.596;2022-12-07T07:58:54;26;25;
74880;PMS5003;63427;49.654;6.596;2022-12-07T08:01:19;27;27;
74880;PMS5003;63427;49.654;6.596;2022-12-07T08:03:45;25;23;
74880;PMS5003;63427;49.654;6.596;2022-12-07T08:06:10;24;23;
74880;PMS5003;63427;49.654;6.596;2022-12-07T08:08:36;29;28;
74880;PMS5003;63427;49.654;6.596;2022-12-07T08:11:04;29;28;
74880;PMS5003;63427;49.654;6.596;2022-12-07T08:13:27;27;26;
74880;PMS5003;63427;49.654;6.596;2022-12-07T08:15:52;23;22;
74880;PMS5003;63427;49.654;6.596;2022-12-07T08:18:18;23;23;
74880;PMS5003;63427;49.654;6.596;2022-12-07T08:20:43;26;25;
74880;PMS5003;63427;49.654;6.596;2022-12-07T08:23:09;27;25;
74880;PMS5003;63427;49.654;6.596;2022-12-07T08:25:34;27;25;
74880;PMS5003;63427;49.654;6.596;2022-12-07T08:28:00;35;35;
74880;PMS5003;63427;49.654;6.596;2022-12-07T08:30:25;24;23;
74880;PMS5003;63427;49.654;6.596;2022-12-07T08:32:50;24;24;
74880;PMS5003;63427;49.654;6.596;2022-12-07T08:35:16;35;34;
74880;PMS5003;63427;49.654;6.596;2022-12-07T08:37:41;34;31;
74880;PMS5003;63427;49.654;6.596;2022-12-07T08:40:08;54;54;
74880;PMS5003;63427;49.654;6.596;2022-12-07T08:42:33;42;41;
74880;PMS5003;63427;49.654;6.596;2022-12-07T08:44:58;30;30;
74880;PMS5003;63427;49.654;6.596;2022-12-07T08:47:23;26;25;
74880;PMS5003;63427;49.654;6.596;2022-12-07T08:49:48;29;28;
74880;PMS5003;63427;49.654;6.596;2022-12-07T08:52:14;36;34;
74880;PMS5003;63427;49.654;6.596;2022-12-07T08:54:39;29;29;
74880;PMS5003;63427;49.654;6.596;2022-12-07T08:57:05;30;28;
74880;PMS5003;63427;49.654;6.596;2022-12-07T08:59:31;33;31;
74880;PMS5003;63427;49.654;6.596;2022-12-07T09:01:56;29;28;
74880;PMS5003;63427;49.654;6.596;2022-12-07T09:04:21;30;28;
74880;PMS5003;63427;49.654;6.596;2022-12-07T09:06:46;31;29;
74880;PMS5003;63427;49.654;6.596;2022-12-07T09:09:12;27;26;
74880;PMS5003;63427;49.654;6.596;2022-12-07T09:11:38;25;25;
74880;PMS5003;63427;49.654;6.596;2022-12-07T09:14:03;39;37;
74880;PMS5003;63427;49.654;6.596;2022-12-07T09:16:29;36;35;
74880;PMS5003;63427;49.654;6.596;2022-12-07T09:18:54;29;29;
74880;PMS5003;63427;49.654;6.596;2022-12-07T09:21:20;30;30;
74880;PMS5003;63427;49.654;6.596;2022-12-07T09:23:46;35;34;
74880;PMS5003;63427;49.654;6.596;2022-12-07T09:26:12;38;37;
74880;PMS5003;63427;49.654;6.596;2022-12-07T09:28:37;28;27;
74880;PMS5003;63427;49.654;6.596;2022-12-07T09:31:02;27;25;
74880;PMS5003;63427;49.654;6.596;2022-12-07T09:33:27;22;21;
74880;PMS5003;63427;49.654;6.596;2022-12-07T09:35:53;25;23;
74880;PMS5003;63427;49.654;6.596;2022-12-07T09:38:19;29;28;
74880;PMS5003;63427;49.654;6.596;2022-12-07T09:40:44;22;21;
74880;PMS5003;63427;49.654;6.596;2022-12-07T09:43:12;31;30;
74880;PMS5003;63427;49.654;6.596;2022-12-07T09:45:35;23;23;
74880;PMS5003;63427;49.654;6.596;2022-12-07T09:48:00;27;26;
74880;PMS5003;63427;49.654;6.596;2022-12-07T09:50:27;25;24;
74880;PMS5003;63427;49.654;6.596;2022-12-07T09:52:51;27;26;
74880;PMS5003;63427;49.654;6.596;2022-12-07T09:55:18;22;22;
74880;PMS5003;63427;49.654;6.596;2022-12-07T09:57:42;24;23;
74880;PMS5003;63427;49.654;6.596;2022-12-07T10:00:11;18;18;
74880;PMS5003;63427;49.654;6.596;2022-12-07T10:02:35;20;18;
74880;PMS5003;63427;49.654;6.596;2022-12-07T10:04:58;21;20;
74880;PMS5003;63427;49.654;6.596;2022-12-07T10:07:24;21;20;
74880;PMS5003;63427;49.654;6.596;2022-12-07T10:09:49;17;16;
74880;PMS5003;63427;49.654;6.596;2022-12-07T10:12:15;18;16;
74880;PMS5003;63427;49.654;6.596;2022-12-07T10:19:32;16;15;
74880;PMS5003;63427;49.654;6.596;2022-12-07T10:22:01;15;15;
74880;PMS5003;63427;49.654;6.596;2022-12-07T10:24:21;14;13;
74880;PMS5003;63427;49.654;6.596;2022-12-07T10:26:48;16;15;
74880;PMS5003;63427;49.654;6.596;2022-12-07T10:29:14;9;9;
74880;PMS5003;63427;49.654;6.596;2022-12-07T10:31:38;11;11;
74880;PMS5003;63427;49.654;6.596;2022-12-07T10:34:03;13;11;
74880;PMS5003;63427;49.654;6.596;2022-12-07T10:36:34;11;10;
74880;PMS5003;63427;49.654;6.596;2022-12-07T10:38:58;10;10;
74880;PMS5003;63427;49.654;6.596;2022-12-07T10:41:19;13;12;
74880;PMS5003;63427;49.654;6.596;2022-12-07T10:43:48;9;9;
74880;PMS5003;63427;49.654;6.596;2022-12-07T10:46:17;11;9;
74880;PMS5003;63427;49.654;6.596;2022-12-07T10:48:37;9;8;
74880;PMS5003;63427;49.654;6.596;2022-12-07T10:51:03;10;10;
74880;PMS5003;63427;49.654;6.596;2022-12-07T10:53:29;10;10;
74880;PMS5003;63427;49.654;6.596;2022-12-07T10:55:56;8;8;
74880;PMS5003;63427;49.654;6.596;2022-12-07T10:58:22;13;11;
74880;PMS5003;63427;49.654;6.596;2022-12-07T11:00:44;10;10;
74880;PMS5003;63427;49.654;6.596;2022-12-07T11:05:36;10;10;
74880;PMS5003;63427;49.654;6.596;2022-12-07T11:08:02;13;13;
74880;PMS5003;63427;49.654;6.596;2022-12-07T11:10:26;14;14;
74880;PMS5003;63427;49.654;6.596;2022-12-07T11:12:54;14;14;
74880;PMS5003;63427;49.654;6.596;2022-12-07T11:15:17;14;13;
74880;PMS5003;63427;49.654;6.596;2022-12-07T11:17:44;13;12;
74880;PMS5003;63427;49.654;6.596;2022-12-07T11:20:12;12;11;
74880;PMS5003;63427;49.654;6.596;2022-12-07T11:22:34;13;12;
74880;PMS5003;63427;49.654;6.596;2022-12-07T11:25:00;11;11;
74880;PMS5003;63427;49.654;6.596;2022-12-07T11:27:24;14;14;
74880;PMS5003;63427;49.654;6.596;2022-12-07T11:29:52;12;12;
74880;PMS5003;63427;49.654;6.596;2022-12-07T11:32:15;13;13;
74880;PMS5003;63427;49.654;6.596;2022-12-07T11:34:39;12;12;
74880;PMS5003;63427;49.654;6.596;2022-12-07T11:44:24;11;11;
74880;PMS5003;63427;49.654;6.596;2022-12-07T11:46:48;14;14;
74880;PMS5003;63427;49.654;6.596;2022-12-07T11:49:13;9;9;
74880;PMS5003;63427;49.654;6.596;2022-12-07T11:51:38;10;10;
74880;PMS5003;63427;49.654;6.596;2022-12-07T11:54:05;10;10;
74880;PMS5003;63427;49.654;6.596;2022-12-07T11:56:29;10;10;
74880;PMS5003;63427;49.654;6.596;2022-12-07T11:58:55;11;11;
74880;PMS5003;63427;49.654;6.596;2022-12-07T12:01:25;13;13;
74880;PMS5003;63427;49.654;6.596;2022-12-07T12:03:46;12;11;
74880;PMS5003;63427;49.654;6.596;2022-12-07T12:06:11;12;12;
74880;PMS5003;63427;49.654;6.596;2022-12-07T12:08:38;10;10;
74880;PMS5003;63427;49.654;6.596;2022-12-07T12:11:10;12;11;
74880;PMS5003;63427;49.654;6.596;2022-12-07T12:13:34;14;13;
74880;PMS5003;63427;49.654;6.596;2022-12-07T12:15:58;8;7;
74880;PMS5003;63427;49.654;6.596;2022-12-07T12:18:23;9;8;
74880;PMS5003;63427;49.654;6.596;2022-12-07T12:20:45;8;7;
74880;PMS5003;63427;49.654;6.596;2022-12-07T12:23:11;9;9;
74880;PMS5003;63427;49.654;6.596;2022-12-07T12:25:36;6;6;
74880;PMS5003;63427;49.654;6.596;2022-12-07T12:28:01;6;6;
74880;PMS5003;63427;49.654;6.596;2022-12-07T12:30:32;7;6;
74880;PMS5003;63427;49.654;6.596;2022-12-07T12:32:52;8;8;
74880;PMS5003;63427;49.654;6.596;2022-12-07T12:35:26;7;7;
74880;PMS5003;63427;49.654;6.596;2022-12-07T12:37:44;11;8;
74880;PMS5003;63427;49.654;6.596;2022-12-07T12:45:04;5;5;
74880;PMS5003;63427;49.654;6.596;2022-12-07T12:57:09;5;4;
74880;PMS5003;63427;49.654;6.596;2022-12-07T12:59:33;5;5;
74880;PMS5003;63427;49.654;6.596;2022-12-07T13:06:50;9;9;
74880;PMS5003;63427;49.654;6.596;2022-12-07T13:09:18;8;8;
74880;PMS5003;63427;49.654;6.596;2022-12-07T13:11:41;9;9;
74880;PMS5003;63427;49.654;6.596;2022-12-07T13:18:57;6;6;
74880;PMS5003;63427;49.654;6.596;2022-12-07T13:23:53;6;5;
74880;PMS5003;63427;49.654;6.596;2022-12-07T13:26:16;7;7;
74880;PMS5003;63427;49.654;6.596;2022-12-07T13:28:41;6;6;
74880;PMS5003;63427;49.654;6.596;2022-12-07T13:31:14;8;7;
74880;PMS5003;63427;49.654;6.596;2022-12-07T13:33:32;6;6;
74880;PMS5003;63427;49.654;6.596;2022-12-07T13:35:57;6;6;
74880;PMS5003;63427;49.654;6.596;2022-12-07T13:38:24;6;6;
74880;PMS5003;63427;49.654;6.596;2022-12-07T13:43:14;8;7;
74880;PMS5003;63427;49.654;6.596;2022-12-07T13:45:40;7;7;
74880;PMS5003;63427;49.654;6.596;2022-12-07T13:48:05;7;6;
74880;PMS5003;63427;49.654;6.596;2022-12-07T13:50:31;5;5;
74880;PMS5003;63427;49.654;6.596;2022-12-07T13:52:57;9;8;
74880;PMS5003;63427;49.654;6.596;2022-12-07T13:55:22;7;6;
74880;PMS5003;63427;49.654;6.596;2022-12-07T13:57:49;7;7;
74880;PMS5003;63427;49.654;6.596;2022-12-07T14:00:14;5;5;
74880;PMS5003;63427;49.654;6.596;2022-12-07T14:05:07;6;6;
74880;PMS5003;63427;49.654;6.596;2022-12-07T14:07:29;6;6;
74880;PMS5003;63427;49.654;6.596;2022-12-07T14:09:57;8;7;
74880;PMS5003;63427;49.654;6.596;2022-12-07T14:12:20;8;7;
74880;PMS5003;63427;49.654;6.596;2022-12-07T14:14:46;6;5;
74880;PMS5003;63427;49.654;6.596;2022-12-07T14:17:12;7;6;
74880;PMS5003;63427;49.654;6.596;2022-12-07T14:19:41;9;8;
74880;PMS5003;63427;49.654;6.596;2022-12-07T14:22:06;8;7;
74880;PMS5003;63427;49.654;6.596;2022-12-07T14:24:28;7;7;
74880;PMS5003;63427;49.654;6.596;2022-12-07T14:26:54;8;8;
74880;PMS5003;63427;49.654;6.596;2022-12-07T14:31:45;7;7;
74880;PMS5003;63427;49.654;6.596;2022-12-07T14:34:11;7;7;
74880;PMS5003;63427;49.654;6.596;2022-12-07T14:36:36;13;13;
74880;PMS5003;63427;49.654;6.596;2022-12-07T14:39:02;15;15;
74880;PMS5003;63427;49.654;6.596;2022-12-07T14:41:27;17;17;
74880;PMS5003;63427;49.654;6.596;2022-12-07T14:43:53;10;8;
74880;PMS5003;63427;49.654;6.596;2022-12-07T14:46:18;9;9;
74880;PMS5003;63427;49.654;6.596;2022-12-07T14:48:44;18;18;
74880;PMS5003;63427;49.654;6.596;2022-12-07T14:51:09;9;9;
74880;PMS5003;63427;49.654;6.596;2022-12-07T14:53:36;21;21;
74880;PMS5003;63427;49.654;6.596;2022-12-07T14:56:00;13;13;
74880;PMS5003;63427;49.654;6.596;2022-12-07T14:58:26;11;11;
74880;PMS5003;63427;49.654;6.596;2022-12-07T15:00:52;8;8;
74880;PMS5003;63427;49.654;6.596;2022-12-07T15:03:17;9;9;
74880;PMS5003;63427;49.654;6.596;2022-12-07T15:05:43;10;10;
74880;PMS5003;63427;49.654;6.596;2022-12-07T15:08:09;8;8;
74880;PMS5003;63427;49.654;6.596;2022-12-07T15:10:34;9;9;
74880;PMS5003;63427;49.654;6.596;2022-12-07T15:13:01;7;7;
74880;PMS5003;63427;49.654;6.596;2022-12-07T15:15:25;9;9;
74880;PMS5003;63427;49.654;6.596;2022-12-07T15:17:51;13;13;
74880;PMS5003;63427;49.654;6.596;2022-12-07T15:20:16;10;10;
74880;PMS5003;63427;49.654;6.596;2022-12-07T15:22:42;10;10;
74880;PMS5003;63427;49.654;6.596;2022-12-07T15:25:08;12;12;
74880;PMS5003;63427;49.654;6.596;2022-12-07T15:27:33;12;12;
74880;PMS5003;63427;49.654;6.596;2022-12-07T15:29:59;11;11;
74880;PMS5003;63427;49.654;6.596;2022-12-07T15:32:24;12;11;
74880;PMS5003;63427;49.654;6.596;2022-12-07T15:34:50;17;15;
74880;PMS5003;63427;49.654;6.596;2022-12-07T15:37:15;14;14;
74880;PMS5003;63427;49.654;6.596;2022-12-07T15:39:41;15;15;
74880;PMS5003;63427;49.654;6.596;2022-12-07T15:42:06;14;13;
74880;PMS5003;63427;49.654;6.596;2022-12-07T15:44:32;11;11;
74880;PMS5003;63427;49.654;6.596;2022-12-07T15:46:58;13;12;
74880;PMS5003;63427;49.654;6.596;2022-12-07T15:49:23;12;12;
74880;PMS5003;63427;49.654;6.596;2022-12-07T15:51:48;12;12;
74880;PMS5003;63427;49.654;6.596;2022-12-07T15:54:16;11;11;
74880;PMS5003;63427;49.654;6.596;2022-12-07T15:56:39;15;15;
74880;PMS5003;63427;49.654;6.596;2022-12-07T15:59:04;15;15;
74880;PMS5003;63427;49.654;6.596;2022-12-07T16:01:29;17;16;
74880;PMS5003;63427;49.654;6.596;2022-12-07T16:03:56;15;15;
74880;PMS5003;63427;49.654;6.596;2022-12-07T16:06:21;14;14;
74880;PMS5003;63427;49.654;6.596;2022-12-07T16:08:46;13;13;
74880;PMS5003;63427;49.654;6.596;2022-12-07T16:11:12;17;17;
74880;PMS5003;63427;49.654;6.596;2022-12-07T16:13:37;18;18;
74880;PMS5003;63427;49.654;6.596;2022-12-07T16:16:03;20;19;
74880;PMS5003;63427;49.654;6.596;2022-12-07T16:18:28;20;19;
74880;PMS5003;63427;49.654;6.596;2022-12-07T16:20:53;18;17;
74880;PMS5003;63427;49.654;6.596;2022-12-07T16:23:19;18;18;
74880;PMS5003;63427;49.654;6.596;2022-12-07T16:25:44;15;15;
74880;PMS5003;63427;49.654;6.596;2022-12-07T16:28:09;17;16;
74880;PMS5003;63427;49.654;6.596;2022-12-07T16:30:35;18;16;
74880;PMS5003;63427;49.654;6.596;2022-12-07T16:33:00;14;14;
74880;PMS5003;63427;49.654;6.596;2022-12-07T16:35:26;17;16;
74880;PMS5003;63427;49.654;6.596;2022-12-07T16:37:52;16;14;
74880;PMS5003;63427;49.654;6.596;2022-12-07T16:40:17;18;18;
74880;PMS5003;63427;49.654;6.596;2022-12-07T16:42:42;18;18;
74880;PMS5003;63427;49.654;6.596;2022-12-07T16:45:08;17;17;
74880;PMS5003;63427;49.654;6.596;2022-12-07T16:47:34;17;17;
74880;PMS5003;63427;49.654;6.596;2022-12-07T16:49:59;17;17;
74880;PMS5003;63427;49.654;6.596;2022-12-07T16:52:24;34;33;
74880;PMS5003;63427;49.654;6.596;2022-12-07T16:54:50;20;19;
74880;PMS5003;63427;49.654;6.596;2022-12-07T16:57:16;21;19;